Norfolk, Virginia
Traffic Map
Current Weather Conditions
Norfolk, Virginia
Overcast Light Rain
Overcast

Feels Like: 6°
Wind Chill: Ceiling: 10000
Heat Index: Visibility: 10mi
Dew Point: Wind: 10mph
Humidity: 83% Direction: 50° (NE)
Pressure: 30.24in Gusts: 0mph
Raw Report DataKORF 191351Z AUTO 05009KT 10SM -RA OVC100 09/06 A3024 RMK AO2 RAB05 SLP240 P0000 T00890061 TSNO
Traffic Incident Summary
Active as of:
Severity:
Category:
InformationThere was an issue retrieving the traffic information for this location. Please try a different location or try again shortly.
Advertisements
At Last! Intellicast now available for iPhone and Android